createdAt,value
2019-04-26T00:02:13.089Z,10.50
2019-04-26T00:04:45.082Z,11.70
2019-04-26T00:07:16.626Z,10.87
2019-04-26T00:09:48.026Z,9.83
2019-04-26T00:12:20.766Z,10.57
2019-04-26T00:14:53.403Z,11.10
2019-04-26T00:17:26.235Z,13.63
2019-04-26T00:19:57.422Z,9.70
2019-04-26T00:22:29.161Z,12.10
2019-04-26T00:25:00.177Z,10.87
2019-04-26T00:27:31.209Z,8.33
2019-04-26T00:30:01.898Z,12.43
2019-04-26T00:32:33.178Z,12.50
2019-04-26T00:35:04.424Z,12.03
2019-04-26T00:37:35.696Z,11.50
2019-04-26T00:40:07.672Z,12.07
2019-04-26T00:42:38.539Z,10.17
2019-04-26T00:45:09.541Z,11.17
2019-04-26T00:47:40.672Z,10.20
2019-04-26T00:50:13.766Z,9.67
2019-04-26T00:52:45.696Z,12.37
2019-04-26T00:55:17.699Z,10.60
2019-04-26T00:57:49.392Z,11.67
2019-04-26T01:00:21.832Z,14.23
2019-04-26T01:02:54.374Z,10.33
2019-04-26T01:05:25.293Z,13.97
2019-04-26T01:07:57.918Z,13.00
2019-04-26T01:10:28.747Z,12.60
2019-04-26T01:12:59.411Z,12.23
2019-04-26T01:15:30.107Z,13.77
2019-04-26T01:18:01.033Z,9.80
2019-04-26T01:20:35.116Z,9.97
2019-04-26T01:23:09.994Z,10.53
2019-04-26T01:25:51.103Z,11.57
2019-04-26T01:28:46.967Z,11.73
2019-04-26T01:31:18.632Z,9.27
2019-04-26T01:33:50.385Z,13.13
2019-04-26T01:36:22.620Z,12.77
2019-04-26T01:38:58.144Z,12.13
2019-04-26T01:41:40.666Z,10.93
2019-04-26T01:44:13.393Z,10.90
2019-04-26T01:46:47.006Z,8.93
2019-04-26T01:49:22.774Z,13.87
2019-04-26T01:52:13.126Z,11.87
2019-04-26T01:54:46.860Z,12.73
2019-04-26T01:57:18.130Z,9.87
2019-04-26T01:59:55.115Z,11.13
2019-04-26T02:02:28.396Z,11.63
2019-04-26T02:05:07.008Z,14.17
2019-04-26T02:07:40.992Z,12.53
2019-04-26T02:10:18.078Z,11.60
2019-04-26T02:12:50.808Z,14.60
2019-04-26T02:15:33.358Z,15.80
2019-04-26T02:18:05.089Z,11.27
2019-04-26T02:21:12.107Z,12.13
2019-04-26T02:23:53.517Z,9.97
2019-04-26T02:26:44.453Z,14.30
2019-04-26T02:29:22.280Z,10.63
2019-04-26T02:32:03.101Z,10.80
2019-04-26T02:34:37.674Z,10.23
2019-04-26T02:37:13.667Z,12.67
2019-04-26T02:39:44.912Z,12.87
2019-04-26T02:42:30.964Z,12.17
2019-04-26T02:45:20.398Z,15.17
2019-04-26T02:47:57.310Z,12.23
2019-04-26T02:50:34.936Z,9.60
2019-04-26T02:53:18.826Z,10.77
2019-04-26T02:56:10.603Z,14.00
2019-04-26T02:58:57.683Z,12.70
2019-04-26T03:01:31.881Z,13.90
2019-04-26T03:04:02.210Z,13.93
2019-04-26T03:06:36.651Z,13.10
2019-04-26T03:09:08.124Z,12.73
2019-04-26T03:11:48.839Z,14.33
2019-04-26T03:14:20.020Z,10.47
2019-04-26T03:16:56.948Z,14.93
2019-04-26T03:20:05.369Z,12.23
2019-04-26T03:22:52.280Z,11.97
2019-04-26T03:25:42.274Z,13.87
2019-04-26T03:28:37.655Z,14.23
2019-04-26T03:31:27.764Z,16.43
2019-04-26T03:34:19.719Z,12.07
2019-04-26T03:37:28.218Z,10.00
2019-04-26T03:40:19.849Z,13.30
2019-04-26T03:43:20.652Z,9.43
2019-04-26T03:46:34.867Z,10.87
2019-04-26T03:49:30.866Z,10.10
2019-04-26T03:52:40.120Z,13.43
2019-04-26T03:55:28.194Z,10.90
2019-04-26T03:58:26.639Z,13.03
2019-04-26T04:01:12.198Z,14.03
2019-04-26T04:04:03.204Z,10.97
2019-04-26T04:06:56.705Z,12.77
2019-04-26T04:09:11.066Z,11.87
2019-04-26T04:11:50.691Z,12.23
2019-04-26T04:14:48.124Z,14.30
2019-04-26T04:17:32.929Z,12.97
2019-04-26T04:20:41.032Z,13.57
2019-04-26T04:23:31.284Z,11.83
2019-04-26T04:26:06.374Z,13.43
2019-04-26T04:29:19.455Z,12.17
2019-04-26T04:31:54.711Z,13.30
2019-04-26T04:34:38.090Z,11.90
2019-04-26T04:37:13.371Z,12.43
2019-04-26T04:40:11.276Z,13.60
2019-04-26T04:43:02.767Z,14.37
2019-04-26T04:46:05.414Z,14.33
2019-04-26T04:48:53.210Z,10.53
2019-04-26T04:51:28.953Z,10.73
2019-04-26T04:54:16.547Z,16.40
2019-04-26T04:57:23.648Z,11.03
2019-04-26T05:00:18.444Z,11.30
2019-04-26T05:03:35.042Z,13.87
2019-04-26T05:06:36.306Z,14.40
2019-04-26T05:09:10.928Z,12.03
2019-04-26T05:12:10.431Z,9.57
2019-04-26T05:15:05.290Z,14.97
2019-04-26T05:18:00.207Z,13.23
2019-04-26T05:21:16.528Z,10.80
2019-04-26T05:24:22.939Z,10.23
2019-04-26T05:27:02.690Z,10.00
2019-04-26T05:29:59.118Z,12.87
2019-04-26T05:32:52.557Z,10.70
2019-04-26T05:35:53.095Z,13.20
2019-04-26T05:38:55.372Z,12.30
2019-04-26T05:42:03.989Z,11.17
2019-04-26T05:45:21.621Z,11.30
2019-04-26T05:48:50.907Z,12.03
2019-04-26T05:52:02.160Z,10.27
2019-04-26T05:55:21.706Z,10.97
2019-04-26T05:58:09.839Z,12.47
2019-04-26T06:01:13.704Z,13.53
2019-04-26T06:04:22.375Z,13.33
2019-04-26T06:07:24.733Z,9.03
2019-04-26T06:10:07.925Z,11.73
2019-04-26T06:12:56.617Z,10.63
2019-04-26T06:15:45.210Z,13.73
2019-04-26T06:18:30.675Z,8.90
2019-04-26T06:21:25.355Z,10.30
2019-04-26T06:24:34.303Z,9.93
2019-04-26T06:27:23.539Z,10.07
2019-04-26T06:30:19.485Z,9.13
2019-04-26T06:33:26.437Z,11.00
2019-04-26T06:36:02.259Z,13.63
2019-04-26T06:39:04.112Z,8.43
2019-04-26T06:42:11.869Z,13.23
2019-04-26T06:45:20.762Z,9.40
2019-04-26T06:48:18.524Z,14.20
2019-04-26T06:51:05.016Z,10.47
2019-04-26T06:53:58.588Z,11.47
2019-04-26T06:56:48.051Z,13.27
2019-04-26T06:59:48.562Z,13.33
2019-04-26T07:02:38.791Z,13.23
2019-04-26T07:05:34.459Z,12.37
2019-04-26T07:08:27.196Z,12.60
2019-04-26T07:11:43.718Z,12.07
2019-04-26T07:15:03.708Z,11.23
2019-04-26T07:17:57.202Z,12.60
2019-04-26T07:20:34.767Z,14.10
2019-04-26T07:23:50.344Z,11.93
2019-04-26T07:26:52.827Z,12.03
2019-04-26T07:29:45.392Z,12.30
2019-04-26T07:32:46.524Z,9.33
2019-04-26T07:35:46.476Z,9.03
2019-04-26T07:38:52.159Z,10.07
2019-04-26T07:41:40.739Z,12.63
2019-04-26T07:44:25.998Z,9.73
2019-04-26T07:47:36.358Z,12.27
2019-04-26T07:50:34.144Z,8.67
2019-04-26T07:53:36.985Z,10.63
2019-04-26T07:56:18.648Z,9.47
2019-04-26T07:59:46.530Z,13.07
2019-04-26T08:02:48.260Z,8.27
2019-04-26T08:05:39.886Z,9.70
2019-04-26T08:08:15.219Z,9.40
2019-04-26T08:11:06.198Z,9.97
2019-04-26T08:13:57.791Z,7.60
2019-04-26T08:16:43.711Z,6.90
2019-04-26T08:19:25.286Z,7.40
2019-04-26T08:22:11.474Z,9.23
2019-04-26T08:24:35.154Z,8.23
2019-04-26T08:27:23.679Z,6.63
2019-04-26T08:29:56.441Z,8.33
2019-04-26T08:32:33.248Z,11.80
2019-04-26T08:35:15.966Z,8.40
2019-04-26T08:37:55.123Z,6.33
2019-04-26T08:40:30.897Z,7.93
2019-04-26T08:43:22.584Z,6.60
2019-04-26T08:46:06.038Z,6.67
2019-04-26T08:48:46.357Z,8.40
2019-04-26T08:51:22.280Z,6.33
2019-04-26T08:53:56.751Z,7.00
2019-04-26T08:56:38.299Z,4.93
2019-04-26T08:59:26.765Z,8.83
2019-04-26T09:02:17.334Z,6.50
2019-04-26T09:05:08.509Z,5.53
2019-04-26T09:07:44.066Z,8.03
2019-04-26T09:10:18.938Z,6.13
2019-04-26T09:12:53.495Z,4.00
2019-04-26T09:15:44.369Z,5.03
2019-04-26T09:18:16.016Z,5.47
2019-04-26T09:20:46.717Z,4.70
2019-04-26T09:23:19.305Z,6.33
2019-04-26T09:25:58.995Z,5.43
2019-04-26T09:28:32.152Z,7.00
2019-04-26T09:31:07.378Z,4.70
2019-04-26T09:33:42.425Z,6.33
2019-04-26T09:36:13.335Z,7.00
2019-04-26T09:38:45.872Z,7.23
2019-04-26T09:41:16.848Z,5.63
2019-04-26T09:43:49.463Z,6.67
2019-04-26T09:46:21.793Z,4.43
2019-04-26T09:48:55.515Z,5.27
2019-04-26T09:51:26.711Z,5.60
2019-04-26T09:53:57.715Z,6.83
2019-04-26T09:56:28.669Z,5.40
2019-04-26T09:59:01.495Z,4.53
2019-04-26T10:01:32.930Z,4.13
2019-04-26T10:04:04.057Z,5.23
2019-04-26T10:06:35.056Z,5.00
2019-04-26T10:09:17.421Z,5.57
2019-04-26T10:11:53.141Z,5.30
2019-04-26T10:14:28.847Z,7.67
2019-04-26T10:17:01.140Z,4.23
2019-04-26T10:19:33.432Z,5.10
2019-04-26T10:22:04.272Z,5.13
2019-04-26T10:24:35.109Z,5.07
2019-04-26T10:27:05.938Z,5.57
2019-04-26T10:29:37.088Z,4.40
2019-04-26T10:32:08.031Z,3.63
2019-04-26T10:34:42.809Z,5.63
2019-04-26T10:37:11.628Z,5.97
2019-04-26T10:39:42.600Z,4.80
2019-04-26T10:42:13.507Z,7.20
2019-04-26T10:44:44.486Z,6.77
2019-04-26T10:47:15.790Z,6.23
2019-04-26T10:49:49.829Z,5.70
2019-04-26T10:52:22.113Z,4.80
2019-04-26T10:55:16.122Z,6.63
2019-04-26T10:57:46.890Z,4.80
2019-04-26T11:00:23.365Z,5.30
2019-04-26T11:02:54.081Z,4.73
2019-04-26T11:05:26.767Z,5.33
2019-04-26T11:07:57.452Z,6.20
2019-04-26T11:10:29.180Z,6.30
2019-04-26T11:13:00.106Z,4.97
2019-04-26T11:15:32.669Z,3.20
2019-04-26T11:18:03.828Z,4.83
2019-04-26T11:20:34.734Z,5.97
2019-04-26T11:23:08.172Z,4.73
2019-04-26T11:25:38.281Z,5.03
2019-04-26T11:28:09.332Z,5.00
2019-04-26T11:30:40.215Z,4.20
2019-04-26T11:33:12.666Z,4.70
2019-04-26T11:35:43.306Z,5.60
2019-04-26T11:38:14.239Z,6.17
2019-04-26T11:40:49.791Z,7.33
2019-04-26T11:43:19.540Z,7.03
2019-04-26T11:45:50.511Z,4.37
2019-04-26T11:48:21.686Z,4.73
2019-04-26T11:50:53.642Z,4.20
2019-04-26T11:53:24.427Z,3.57
2019-04-26T11:55:55.177Z,7.83
2019-04-26T11:58:25.836Z,4.90
2019-04-26T12:00:58.135Z,5.40
2019-04-26T12:03:28.811Z,7.10
2019-04-26T12:06:01.128Z,4.13
2019-04-26T12:08:48.318Z,5.33
2019-04-26T12:11:25.798Z,4.43
2019-04-26T12:13:51.351Z,4.80
2019-04-26T12:16:22.306Z,4.80
2019-04-26T12:18:52.975Z,5.90
2019-04-26T12:21:23.656Z,4.93
2019-04-26T12:23:55.523Z,6.93
2019-04-26T12:26:27.028Z,4.90
2019-04-26T12:28:57.932Z,5.83
2019-04-26T12:31:28.638Z,5.13
2019-04-26T12:33:59.608Z,5.77
2019-04-26T12:36:30.566Z,8.10
2019-04-26T12:39:02.249Z,4.97
2019-04-26T12:41:40.251Z,7.43
2019-04-26T12:44:08.150Z,10.80
2019-04-26T12:46:59.414Z,6.23
2019-04-26T12:49:29.103Z,6.00
2019-04-26T12:51:59.766Z,6.57
2019-04-26T12:54:31.554Z,6.53
2019-04-26T12:57:05.955Z,8.73
2019-04-26T12:59:44.079Z,6.47
2019-04-26T13:02:07.080Z,7.27
2019-04-26T13:04:40.607Z,4.97
2019-04-26T13:07:22.763Z,7.70
2019-04-26T13:10:02.245Z,8.40
2019-04-26T13:12:40.497Z,7.40
2019-04-26T13:15:46.365Z,5.63
2019-04-26T13:18:18.572Z,7.67
2019-04-26T13:20:49.273Z,6.60
2019-04-26T13:23:20.240Z,5.57
2019-04-26T13:25:50.881Z,5.70
2019-04-26T13:28:21.902Z,5.20
2019-04-26T13:30:52.549Z,7.13
2019-04-26T13:33:27.371Z,8.40
2019-04-26T13:36:03.850Z,8.30
2019-04-26T13:38:29.138Z,6.40
2019-04-26T13:41:04.601Z,6.97
2019-04-26T13:43:33.300Z,8.53
2019-04-26T13:46:20.749Z,4.43
2019-04-26T13:48:53.049Z,7.73
2019-04-26T13:51:34.615Z,5.47
2019-04-26T13:54:06.396Z,6.23
2019-04-26T13:56:37.632Z,6.13
2019-04-26T13:59:09.065Z,6.20
2019-04-26T14:01:39.804Z,7.20
2019-04-26T14:04:11.391Z,5.50
2019-04-26T14:06:42.075Z,5.93
2019-04-26T14:09:14.410Z,5.50
2019-04-26T14:11:45.322Z,6.60
2019-04-26T14:14:16.290Z,5.67
2019-04-26T14:16:47.183Z,6.57
2019-04-26T14:19:17.886Z,6.53
2019-04-26T14:21:48.727Z,4.90
2019-04-26T14:24:23.878Z,5.10
2019-04-26T14:27:00.790Z,5.83
2019-04-26T14:29:33.887Z,6.30
2019-04-26T14:32:04.766Z,5.77
2019-04-26T14:34:36.287Z,4.50
2019-04-26T14:37:11.033Z,7.30
2019-04-26T14:39:50.091Z,4.37
2019-04-26T14:42:12.814Z,4.67
2019-04-26T14:44:49.605Z,6.37
2019-04-26T14:47:17.977Z,7.47
2019-04-26T14:49:48.498Z,3.20
2019-04-26T14:52:19.705Z,4.30
2019-04-26T14:54:50.787Z,5.87
2019-04-26T14:57:26.749Z,5.13
2019-04-26T14:59:58.147Z,6.20
2019-04-26T15:02:28.658Z,4.33
2019-04-26T15:05:12.811Z,5.00
2019-04-26T15:07:51.120Z,5.63
2019-04-26T15:10:16.937Z,4.73
2019-04-26T15:12:52.647Z,4.57
2019-04-26T15:15:20.481Z,5.40
2019-04-26T15:17:53.635Z,3.90
2019-04-26T15:20:24.544Z,4.63
2019-04-26T15:22:55.200Z,5.23
2019-04-26T15:25:26.123Z,6.00
2019-04-26T15:27:57.091Z,5.63
2019-04-26T15:30:27.729Z,5.90
2019-04-26T15:32:58.680Z,5.73
2019-04-26T15:35:34.198Z,3.97
2019-04-26T15:38:02.490Z,4.87
2019-04-26T15:40:42.493Z,4.83
2019-04-26T15:43:20.627Z,4.57
2019-04-26T15:45:53.044Z,5.53
2019-04-26T15:48:26.176Z,5.63
2019-04-26T15:50:57.647Z,5.87
2019-04-26T15:53:28.544Z,7.60
2019-04-26T15:55:59.227Z,5.80
2019-04-26T15:58:29.881Z,5.03
2019-04-26T16:01:00.698Z,5.13
2019-04-26T16:03:32.783Z,6.23
2019-04-26T16:06:07.004Z,8.67
2019-04-26T16:08:42.514Z,6.63
2019-04-26T16:11:11.364Z,7.07
2019-04-26T16:13:45.163Z,8.80
2019-04-26T16:16:16.465Z,5.93
2019-04-26T16:18:55.554Z,6.37
2019-04-26T16:21:23.717Z,6.47
2019-04-26T16:23:55.439Z,5.67
2019-04-26T16:26:27.254Z,5.93
2019-04-26T16:29:03.501Z,9.13
2019-04-26T16:31:42.057Z,7.20
2019-04-26T16:34:15.820Z,6.47
2019-04-26T16:36:46.755Z,5.67
2019-04-26T16:39:17.911Z,7.53
2019-04-26T16:41:49.264Z,6.10
2019-04-26T16:44:29.598Z,6.23
2019-04-26T16:47:01.334Z,7.50
2019-04-26T16:49:35.125Z,6.47
2019-04-26T16:52:07.106Z,6.70
2019-04-26T16:54:38.033Z,7.50
2019-04-26T16:57:11.377Z,8.53
2019-04-26T16:59:47.677Z,8.20
2019-04-26T17:02:16.219Z,8.53
2019-04-26T17:04:49.944Z,9.07
2019-04-26T17:07:25.376Z,9.43
2019-04-26T17:09:58.959Z,10.10
2019-04-26T17:12:26.024Z,10.70
2019-04-26T17:14:57.038Z,11.83
2019-04-26T17:17:27.771Z,12.40
2019-04-26T17:19:59.029Z,14.10
2019-04-26T17:22:42.546Z,15.03
2019-04-26T17:25:24.444Z,15.17
2019-04-26T17:27:54.657Z,13.80
2019-04-26T17:30:34.477Z,15.30
2019-04-26T17:33:04.099Z,15.10
2019-04-26T17:35:40.720Z,15.80
2019-04-26T17:38:11.466Z,17.43
2019-04-26T17:40:41.588Z,18.63
2019-04-26T17:43:13.462Z,17.63
2019-04-26T17:45:44.761Z,16.83
2019-04-26T17:48:16.490Z,17.07
2019-04-26T17:50:47.633Z,18.13
2019-04-26T17:53:28.188Z,18.83
2019-04-26T17:55:54.628Z,19.40
2019-04-26T17:58:31.054Z,19.90
2019-04-26T18:01:01.053Z,19.60
2019-04-26T18:03:29.812Z,21.23
2019-04-26T18:06:02.273Z,21.93
2019-04-26T18:08:41.087Z,23.30
2019-04-26T18:11:18.386Z,23.90
2019-04-26T18:13:47.182Z,24.47
2019-04-26T18:16:17.755Z,25.57
2019-04-26T18:19:02.471Z,26.47
2019-04-26T18:21:59.628Z,27.77
2019-04-26T18:24:27.578Z,28.10
2019-04-26T18:27:00.621Z,29.87
2019-04-26T18:29:33.699Z,29.67
2019-04-26T18:32:04.937Z,29.90
2019-04-26T18:34:40.237Z,31.17
2019-04-26T18:37:09.231Z,32.17
2019-04-26T18:39:40.709Z,34.70
2019-04-26T18:42:13.842Z,38.07
2019-04-26T18:44:48.766Z,38.07
2019-04-26T18:47:27.459Z,37.93
2019-04-26T18:49:58.325Z,40.13
2019-04-26T18:52:28.695Z,39.43
2019-04-26T18:55:05.507Z,39.23
2019-04-26T18:57:39.501Z,39.83
2019-04-26T19:00:14.357Z,40.37
2019-04-26T19:02:48.383Z,40.90
2019-04-26T19:05:23.828Z,40.63
2019-04-26T19:07:52.277Z,41.30
2019-04-26T19:10:25.830Z,40.80
2019-04-26T19:13:07.330Z,37.83
2019-04-26T19:15:53.351Z,39.53
2019-04-26T19:18:42.437Z,37.13
2019-04-26T19:21:14.829Z,35.53
2019-04-26T19:23:45.608Z,34.83
2019-04-26T19:26:32.427Z,37.23
2019-04-26T19:28:54.389Z,36.73
2019-04-26T19:31:27.106Z,34.60
2019-04-26T19:33:57.772Z,32.90
2019-04-26T19:36:29.368Z,26.83
2019-04-26T19:39:01.014Z,23.93
2019-04-26T19:41:33.535Z,23.87
2019-04-26T19:44:06.610Z,24.17
2019-04-26T19:46:45.385Z,25.07
2019-04-26T19:49:33.242Z,26.13
2019-04-26T19:52:22.047Z,19.57
2019-04-26T19:55:11.522Z,12.60
2019-04-26T19:58:01.813Z,10.10
2019-04-26T20:00:32.557Z,9.27
2019-04-26T20:03:03.406Z,8.97
2019-04-26T20:05:36.305Z,7.37
2019-04-26T20:08:07.822Z,7.77
2019-04-26T20:10:44.712Z,8.17
2019-04-26T20:13:16.501Z,8.97
2019-04-26T20:15:49.357Z,9.43
2019-04-26T20:18:21.397Z,9.40
2019-04-26T20:20:54.571Z,10.10
2019-04-26T20:23:25.944Z,11.60
2019-04-26T20:26:06.106Z,11.87
2019-04-26T20:28:34.313Z,9.50
2019-04-26T20:31:07.690Z,10.87
2019-04-26T20:33:39.107Z,10.13
2019-04-26T20:36:12.717Z,10.07
2019-04-26T20:38:47.418Z,11.17
2019-04-26T20:41:17.740Z,10.07
2019-04-26T20:44:04.426Z,8.13
2019-04-26T20:46:29.696Z,8.87
2019-04-26T20:49:07.923Z,10.40
2019-04-26T20:51:35.030Z,12.77
2019-04-26T20:54:06.112Z,10.43
2019-04-26T20:56:37.127Z,10.20
2019-04-26T20:59:08.170Z,11.30
2019-04-26T21:01:43.627Z,10.67
2019-04-26T21:04:34.988Z,11.23
2019-04-26T21:06:54.891Z,12.27
2019-04-26T21:09:26.538Z,11.37
2019-04-26T21:11:57.631Z,11.30
2019-04-26T21:14:28.423Z,11.33
2019-04-26T21:16:59.848Z,11.33
2019-04-26T21:19:32.744Z,10.67
2019-04-26T21:22:03.559Z,10.90
2019-04-26T21:24:36.928Z,10.73
2019-04-26T21:27:26.057Z,10.43
2019-04-26T21:30:07.398Z,11.73
2019-04-26T21:32:40.769Z,10.33
2019-04-26T21:35:13.636Z,10.47
2019-04-26T21:37:49.455Z,10.00
2019-04-26T21:40:26.016Z,10.70
2019-04-26T21:42:59.249Z,10.07
2019-04-26T21:45:30.886Z,10.53
2019-04-26T21:48:02.606Z,10.83
2019-04-26T21:50:38.667Z,9.83
2019-04-26T21:53:07.159Z,9.63
2019-04-26T21:55:38.951Z,9.73
2019-04-26T21:58:09.650Z,10.10
2019-04-26T22:00:48.933Z,10.17
2019-04-26T22:03:21.412Z,10.30
2019-04-26T22:05:52.110Z,10.93
2019-04-26T22:08:25.701Z,11.70
2019-04-26T22:10:58.330Z,11.30
2019-04-26T22:13:41.576Z,11.33
2019-04-26T22:16:29.309Z,12.83
2019-04-26T22:19:04.832Z,12.53
2019-04-26T22:21:44.345Z,12.77
2019-04-26T22:24:35.137Z,14.50
2019-04-26T22:27:06.103Z,13.73
2019-04-26T22:29:37.033Z,13.67
2019-04-26T22:32:11.548Z,14.27
2019-04-26T22:34:41.395Z,13.67
2019-04-26T22:37:14.812Z,16.70
2019-04-26T22:39:45.436Z,15.45
2019-04-26T22:42:18.337Z,16.37
2019-04-26T22:44:53.908Z,14.40
2019-04-26T22:47:40.832Z,14.30
2019-04-26T22:50:13.989Z,14.70
2019-04-26T22:52:46.691Z,13.10
2019-04-26T22:55:24.024Z,13.40
2019-04-26T22:57:53.039Z,13.37
2019-04-26T23:18:13.751Z,12.97
2019-04-26T23:20:59.055Z,13.07
2019-04-26T23:23:30.261Z,11.33
2019-04-26T23:26:06.176Z,12.90
2019-04-26T23:28:39.225Z,11.60
2019-04-26T23:31:10.432Z,12.40
2019-04-26T23:33:42.831Z,10.50
2019-04-26T23:36:18.451Z,9.67
2019-04-26T23:38:47.579Z,10.40
2019-04-26T23:41:18.263Z,9.97
2019-04-26T23:43:49.312Z,9.53
2019-04-26T23:46:22.852Z,9.17
2019-04-26T23:48:53.867Z,8.73
2019-04-26T23:51:26.183Z,8.33
2019-04-26T23:53:57.956Z,9.20
2019-04-26T23:56:30.961Z,8.40
2019-04-26T23:59:03.486Z,9.10
